createdAt,value
2017-11-04T00:00:16.214Z,964.86
2017-11-04T00:01:16.109Z,964.85
2017-11-04T00:02:16.098Z,964.84
2017-11-04T00:03:16.090Z,964.83
2017-11-04T00:04:16.082Z,964.84
2017-11-04T00:05:16.074Z,964.88
2017-11-04T00:06:16.066Z,964.83
2017-11-04T00:07:16.057Z,964.89
2017-11-04T00:08:16.050Z,964.88
2017-11-04T00:09:16.042Z,964.84
2017-11-04T00:10:16.036Z,964.84
2017-11-04T00:11:16.026Z,964.86
2017-11-04T00:12:16.016Z,964.84
2017-11-04T00:13:16.009Z,964.79
2017-11-04T00:14:16.008Z,964.83
2017-11-04T00:15:15.997Z,964.82
2017-11-04T00:16:15.986Z,964.77
2017-11-04T00:17:15.976Z,964.82
2017-11-04T00:18:15.968Z,964.8
2017-11-04T00:19:15.960Z,964.82
2017-11-04T00:20:15.952Z,964.78
2017-11-04T00:21:15.948Z,964.78
2017-11-04T00:22:15.938Z,964.75
2017-11-04T00:23:15.929Z,964.77
2017-11-04T00:24:15.922Z,964.77
2017-11-04T00:25:15.913Z,964.79
2017-11-04T00:26:15.905Z,964.81
2017-11-04T00:27:15.897Z,964.79
2017-11-04T00:28:15.888Z,964.8
2017-11-04T00:29:15.881Z,964.74
2017-11-04T00:30:15.877Z,964.76
2017-11-04T00:31:15.873Z,964.77
2017-11-04T00:32:15.857Z,964.76
2017-11-04T00:33:15.848Z,964.8
2017-11-04T00:34:15.840Z,964.78
2017-11-04T00:35:15.833Z,964.8
2017-11-04T00:36:15.826Z,964.82
2017-11-04T00:37:15.815Z,964.83
2017-11-04T00:38:15.808Z,964.81
2017-11-04T00:39:15.800Z,964.77
2017-11-04T00:40:15.792Z,964.83
2017-11-04T00:41:15.783Z,964.81
2017-11-04T00:42:15.777Z,964.82
2017-11-04T00:43:15.767Z,964.79
2017-11-04T00:44:15.760Z,964.83
2017-11-04T00:45:15.754Z,964.78
2017-11-04T00:46:15.749Z,964.81
2017-11-04T00:47:15.736Z,964.81
2017-11-04T00:48:15.727Z,964.8
2017-11-04T00:49:15.719Z,964.82
2017-11-04T00:50:15.712Z,964.82
2017-11-04T00:51:15.702Z,964.8
2017-11-04T00:52:15.694Z,964.76
2017-11-04T00:53:15.688Z,964.79
2017-11-04T00:54:15.679Z,964.75
2017-11-04T00:55:15.676Z,964.72
2017-11-04T00:56:15.662Z,964.72
2017-11-04T00:57:15.654Z,964.75
2017-11-04T00:58:15.647Z,964.74
2017-11-04T00:59:15.639Z,964.79
2017-11-04T01:00:15.630Z,964.76
2017-11-04T01:01:15.623Z,964.76
2017-11-04T01:02:15.614Z,964.78
2017-11-04T01:03:15.607Z,964.71
2017-11-04T01:04:15.600Z,964.69
2017-11-04T01:05:15.592Z,964.69
2017-11-04T01:06:15.581Z,964.71
2017-11-04T01:07:15.575Z,964.71
2017-11-04T01:08:15.565Z,964.73
2017-11-04T01:09:15.557Z,964.72
2017-11-04T01:10:15.550Z,964.72
2017-11-04T01:11:15.541Z,964.73
2017-11-04T01:12:15.534Z,964.68
2017-11-04T01:13:15.525Z,964.7
2017-11-04T01:14:15.521Z,964.7
2017-11-04T01:15:15.510Z,964.74
2017-11-04T01:16:15.509Z,964.73
2017-11-04T01:17:15.492Z,964.74
2017-11-04T01:18:15.485Z,964.7
2017-11-04T01:19:15.476Z,964.7
2017-11-04T01:20:15.468Z,964.72
2017-11-04T01:21:15.466Z,964.73
2017-11-04T01:22:15.457Z,964.79
2017-11-04T01:23:15.445Z,964.76
2017-11-04T01:24:15.436Z,964.77
2017-11-04T01:25:15.428Z,964.77
2017-11-04T01:26:15.421Z,964.78
2017-11-04T01:27:15.412Z,964.79
2017-11-04T01:28:15.403Z,964.77
2017-11-04T01:29:15.397Z,964.77
2017-11-04T01:30:15.389Z,964.75
2017-11-04T01:31:15.378Z,964.76
2017-11-04T01:32:15.370Z,964.76
2017-11-04T01:33:15.464Z,964.78
2017-11-04T01:34:15.355Z,964.85
2017-11-04T01:35:15.346Z,964.87
2017-11-04T01:36:15.339Z,964.89
2017-11-04T01:37:15.330Z,964.87
2017-11-04T01:38:15.322Z,964.86
2017-11-04T01:39:15.320Z,964.85
2017-11-04T01:40:15.307Z,964.8
2017-11-04T01:41:15.297Z,964.78
2017-11-04T01:42:15.288Z,964.81
2017-11-04T01:43:15.281Z,964.77
2017-11-04T01:44:15.272Z,964.77
2017-11-04T01:45:15.265Z,964.72
2017-11-04T01:46:15.256Z,964.72
2017-11-04T01:47:15.249Z,964.77
2017-11-04T01:48:15.241Z,964.75
2017-11-04T01:49:15.232Z,964.72
2017-11-04T01:50:15.224Z,964.72
2017-11-04T01:51:15.215Z,964.73
2017-11-04T01:52:15.209Z,964.69
2017-11-04T01:53:15.199Z,964.7
2017-11-04T01:54:15.191Z,964.7
2017-11-04T01:55:15.184Z,964.73
2017-11-04T01:56:15.175Z,964.72
2017-11-04T01:57:15.166Z,964.74
2017-11-04T01:58:15.258Z,964.74
2017-11-04T01:59:15.150Z,964.73
2017-11-04T02:00:15.143Z,964.74
2017-11-04T02:01:15.137Z,964.71
2017-11-04T02:02:15.126Z,964.73
2017-11-04T02:03:15.118Z,964.72
2017-11-04T02:04:15.210Z,964.69
2017-11-04T02:05:15.101Z,964.68
2017-11-04T02:06:15.094Z,964.66
2017-11-04T02:07:15.086Z,964.64
2017-11-04T02:08:15.075Z,964.63
2017-11-04T02:09:15.068Z,964.63
2017-11-04T02:10:15.061Z,964.59
2017-11-04T02:11:15.053Z,964.62
2017-11-04T02:12:15.045Z,964.65
2017-11-04T02:13:15.036Z,964.68
2017-11-04T02:14:15.028Z,964.64
2017-11-04T02:15:15.018Z,964.63
2017-11-04T02:16:15.010Z,964.65
2017-11-04T02:17:15.003Z,964.65
2017-11-04T02:18:14.994Z,964.66
2017-11-04T02:19:14.986Z,964.67
2017-11-04T02:20:14.979Z,964.64
2017-11-04T02:21:14.970Z,964.65
2017-11-04T02:22:14.980Z,964.65
2017-11-04T02:23:14.954Z,964.63
2017-11-04T02:24:14.944Z,964.63
2017-11-04T02:25:14.939Z,964.69
2017-11-04T02:26:14.929Z,964.68
2017-11-04T02:27:14.920Z,964.7
2017-11-04T02:28:14.914Z,964.72
2017-11-04T02:29:14.907Z,964.7
2017-11-04T02:30:14.897Z,964.68
2017-11-04T02:31:14.889Z,964.71
2017-11-04T02:32:14.879Z,964.72
2017-11-04T02:33:14.875Z,964.76
2017-11-04T02:34:14.876Z,964.76
2017-11-04T02:35:14.856Z,964.73
2017-11-04T02:36:14.848Z,964.72
2017-11-04T02:37:14.839Z,964.68
2017-11-04T02:38:14.831Z,964.71
2017-11-04T02:39:14.823Z,964.73
2017-11-04T02:40:14.815Z,964.71
2017-11-04T02:41:14.806Z,964.7
2017-11-04T02:42:14.799Z,964.64
2017-11-04T02:43:14.791Z,964.69
2017-11-04T02:44:14.782Z,964.68
2017-11-04T02:45:14.773Z,964.64
2017-11-04T02:46:14.765Z,964.67
2017-11-04T02:47:14.760Z,964.64
2017-11-04T02:48:14.750Z,964.63
2017-11-04T02:49:14.739Z,964.65
2017-11-04T02:50:14.733Z,964.66
2017-11-04T02:51:14.727Z,964.68
2017-11-04T02:52:14.717Z,964.73
2017-11-04T02:53:14.708Z,964.68
2017-11-04T02:54:14.700Z,964.71
2017-11-04T02:55:14.690Z,964.74
2017-11-04T02:56:14.684Z,964.72
2017-11-04T02:57:14.675Z,964.72
2017-11-04T02:58:14.669Z,964.73
2017-11-04T02:59:14.657Z,964.74
2017-11-04T03:00:14.652Z,964.72
2017-11-04T03:01:14.642Z,964.75
2017-11-04T03:02:14.635Z,964.74
2017-11-04T03:03:14.624Z,964.74
2017-11-04T03:04:14.618Z,964.71
2017-11-04T03:05:14.608Z,964.71
2017-11-04T03:06:14.600Z,964.72
2017-11-04T03:07:14.591Z,964.74
2017-11-04T03:08:14.584Z,964.72
2017-11-04T03:09:14.576Z,964.75
2017-11-04T03:10:14.565Z,964.76
2017-11-04T03:11:14.559Z,964.72
2017-11-04T03:12:14.550Z,964.72
2017-11-04T03:13:14.542Z,964.78
2017-11-04T03:14:14.535Z,964.73
2017-11-04T03:15:14.537Z,964.72
2017-11-04T03:16:14.517Z,964.72
2017-11-04T03:17:14.608Z,964.73
2017-11-04T03:18:14.506Z,964.72
2017-11-04T03:19:14.497Z,964.73
2017-11-04T03:20:14.483Z,964.69
2017-11-04T03:21:14.474Z,964.75
2017-11-04T03:22:14.469Z,964.74
2017-11-04T03:23:14.561Z,964.73
2017-11-04T03:24:14.451Z,964.75
2017-11-04T03:25:14.444Z,964.74
2017-11-04T03:26:14.434Z,964.74
2017-11-04T03:27:14.427Z,964.74
2017-11-04T03:28:14.417Z,964.79
2017-11-04T03:29:14.410Z,964.81
2017-11-04T03:30:14.403Z,964.79
2017-11-04T03:31:14.393Z,964.77
2017-11-04T03:32:14.384Z,964.81
2017-11-04T03:33:14.377Z,964.81
2017-11-04T03:34:14.369Z,964.78
2017-11-04T03:35:14.360Z,964.8
2017-11-04T03:36:14.350Z,964.82
2017-11-04T03:37:14.345Z,964.79
2017-11-04T03:38:14.334Z,964.77
2017-11-04T03:39:14.327Z,964.77
2017-11-04T03:40:14.318Z,964.75
2017-11-04T03:41:14.311Z,964.74
2017-11-04T03:42:14.301Z,964.73
2017-11-04T03:43:14.297Z,964.76
2017-11-04T03:44:14.286Z,964.76
2017-11-04T03:45:14.276Z,964.79
2017-11-04T03:46:14.270Z,964.78
2017-11-04T03:47:14.260Z,964.8
2017-11-04T03:48:14.251Z,964.78
2017-11-04T03:49:14.243Z,964.85
2017-11-04T03:50:14.233Z,964.8
2017-11-04T03:51:14.230Z,964.82
2017-11-04T03:52:14.219Z,964.8
2017-11-04T03:53:14.210Z,964.77
2017-11-04T03:54:14.202Z,964.79
2017-11-04T03:55:14.194Z,964.81
2017-11-04T03:56:14.187Z,964.81
2017-11-04T03:57:14.176Z,964.79
2017-11-04T03:58:14.168Z,964.77
2017-11-04T03:59:14.161Z,964.79
2017-11-04T04:00:14.152Z,964.82
2017-11-04T04:01:14.142Z,964.8
2017-11-04T04:02:14.140Z,964.81
2017-11-04T04:03:14.127Z,964.8
2017-11-04T04:04:14.119Z,964.77
2017-11-04T04:05:14.111Z,964.77
2017-11-04T04:06:14.102Z,964.77
2017-11-04T04:07:14.094Z,964.75
2017-11-04T04:08:14.084Z,964.75
2017-11-04T04:09:14.078Z,964.73
2017-11-04T04:10:14.069Z,964.73
2017-11-04T04:11:14.062Z,964.7
2017-11-04T04:12:14.052Z,964.72
2017-11-04T04:13:14.044Z,964.73
2017-11-04T04:14:14.036Z,964.73
2017-11-04T04:15:14.028Z,964.72
2017-11-04T04:16:14.018Z,964.72
2017-11-04T04:17:14.011Z,964.68
2017-11-04T04:18:14.102Z,964.73
2017-11-04T04:19:13.994Z,964.7
2017-11-04T04:20:13.987Z,964.72
2017-11-04T04:21:13.977Z,964.68
2017-11-04T04:22:13.970Z,964.68
2017-11-04T04:23:13.961Z,964.66
2017-11-04T04:24:13.958Z,964.64
2017-11-04T04:25:13.944Z,964.63
2017-11-04T04:26:13.935Z,964.61
2017-11-04T04:27:13.927Z,964.61
2017-11-04T04:28:13.919Z,964.57
2017-11-04T04:29:13.911Z,964.58
2017-11-04T04:30:13.902Z,964.58
2017-11-04T04:31:13.894Z,964.62
2017-11-04T04:32:13.885Z,964.6
2017-11-04T04:33:13.877Z,964.61
2017-11-04T04:34:13.867Z,964.61
2017-11-04T04:35:13.861Z,964.61
2017-11-04T04:36:13.852Z,964.65
2017-11-04T04:37:13.845Z,964.59
2017-11-04T04:38:13.835Z,964.65
2017-11-04T04:39:13.829Z,964.66
2017-11-04T04:40:13.818Z,964.65
2017-11-04T04:41:13.810Z,964.65
2017-11-04T04:42:13.802Z,964.66
2017-11-04T04:43:13.795Z,964.64
2017-11-04T04:44:13.785Z,964.63
2017-11-04T04:45:13.778Z,964.59
2017-11-04T04:46:13.770Z,964.59
2017-11-04T04:47:13.760Z,964.56
2017-11-04T04:48:13.752Z,964.57
2017-11-04T04:49:13.744Z,964.58
2017-11-04T04:50:13.834Z,964.56
2017-11-04T04:51:13.726Z,964.6
2017-11-04T04:52:13.717Z,964.62
2017-11-04T04:53:13.715Z,964.61
2017-11-04T04:54:13.701Z,964.64
2017-11-04T04:55:13.692Z,964.59
2017-11-04T04:56:13.684Z,964.59
2017-11-04T04:57:13.677Z,964.62
2017-11-04T04:58:13.667Z,964.63
2017-11-04T04:59:13.664Z,964.59
2017-11-04T05:00:13.650Z,964.63
2017-11-04T05:01:13.643Z,964.65
2017-11-04T05:02:13.634Z,964.67
2017-11-04T05:03:13.626Z,964.7
2017-11-04T05:04:13.617Z,964.68
2017-11-04T05:05:13.609Z,964.7
2017-11-04T05:06:13.601Z,964.67
2017-11-04T05:07:13.595Z,964.67
2017-11-04T05:08:13.584Z,964.69
2017-11-04T05:09:13.576Z,964.68
2017-11-04T05:10:13.568Z,964.66
2017-11-04T05:11:13.558Z,964.7
2017-11-04T05:12:13.549Z,964.69
2017-11-04T05:13:13.562Z,964.75
2017-11-04T05:14:13.533Z,964.73
2017-11-04T05:15:13.525Z,964.72
2017-11-04T05:16:13.517Z,964.71
2017-11-04T05:17:13.509Z,964.69
2017-11-04T05:18:13.500Z,964.72
2017-11-04T05:19:13.491Z,964.7
2017-11-04T05:20:13.484Z,964.72
2017-11-04T05:21:13.476Z,964.72
2017-11-04T05:22:13.467Z,964.67
2017-11-04T05:23:13.458Z,964.7
2017-11-04T05:24:13.451Z,964.72
2017-11-04T05:25:13.541Z,964.71
2017-11-04T05:26:13.431Z,964.74
2017-11-04T05:27:13.426Z,964.71
2017-11-04T05:28:13.415Z,964.69
2017-11-04T05:29:13.409Z,964.71
2017-11-04T05:30:13.400Z,964.67
2017-11-04T05:31:13.390Z,964.67
2017-11-04T05:32:13.384Z,964.65
2017-11-04T05:33:13.375Z,964.67
2017-11-04T05:34:13.364Z,964.7
2017-11-04T05:35:13.456Z,964.63
2017-11-04T05:36:13.349Z,964.65
2017-11-04T05:37:13.443Z,964.6
2017-11-04T05:38:13.331Z,964.52
2017-11-04T05:39:13.324Z,964.5
2017-11-04T05:40:13.315Z,964.56
2017-11-04T05:41:13.308Z,964.52
2017-11-04T05:42:13.298Z,964.51
2017-11-04T05:43:13.291Z,964.47
2017-11-04T05:44:13.283Z,964.49
2017-11-04T05:45:13.274Z,964.47
2017-11-04T05:46:13.266Z,964.43
2017-11-04T05:47:13.258Z,964.43
2017-11-04T05:48:13.250Z,964.4
2017-11-04T05:49:13.239Z,964.4
2017-11-04T05:50:13.232Z,964.43
2017-11-04T05:51:13.224Z,964.42
2017-11-04T05:52:13.215Z,964.45
2017-11-04T05:53:13.208Z,964.45
2017-11-04T05:54:13.198Z,964.45
2017-11-04T05:55:13.190Z,964.44
2017-11-04T05:56:13.181Z,964.45
2017-11-04T05:57:13.173Z,964.46
2017-11-04T05:58:13.166Z,964.44
2017-11-04T05:59:13.158Z,964.42
2017-11-04T06:00:13.154Z,964.4
2017-11-04T06:01:13.139Z,964.4
2017-11-04T06:02:13.131Z,964.43
2017-11-04T06:03:13.123Z,964.42
2017-11-04T06:04:13.115Z,964.43
2017-11-04T06:05:13.106Z,964.44
2017-11-04T06:06:13.111Z,964.45
2017-11-04T06:07:13.089Z,964.46
2017-11-04T06:08:13.184Z,964.49
2017-11-04T06:09:13.073Z,964.46
2017-11-04T06:10:13.065Z,964.48
2017-11-04T06:11:13.060Z,964.48
2017-11-04T06:12:13.048Z,964.54
2017-11-04T06:13:13.039Z,964.54
2017-11-04T06:14:13.031Z,964.57
2017-11-04T06:15:13.022Z,964.57
2017-11-04T06:16:13.018Z,964.59
2017-11-04T06:17:13.007Z,964.63
2017-11-04T06:18:12.997Z,964.63
2017-11-04T06:19:12.988Z,964.64
2017-11-04T06:20:12.987Z,964.65
2017-11-04T06:21:12.971Z,964.57
2017-11-04T06:22:12.966Z,964.6
2017-11-04T06:23:12.956Z,964.62
2017-11-04T06:24:12.947Z,964.62
2017-11-04T06:25:12.939Z,964.63
2017-11-04T06:26:12.930Z,964.62
2017-11-04T06:27:12.922Z,964.65
2017-11-04T06:28:12.915Z,964.65
2017-11-04T06:29:12.904Z,964.69
2017-11-04T06:30:12.897Z,964.67
2017-11-04T06:31:12.888Z,964.61
2017-11-04T06:32:12.879Z,964.65
2017-11-04T06:33:12.873Z,964.67
2017-11-04T06:34:12.864Z,964.66
2017-11-04T06:35:12.962Z,964.66
2017-11-04T06:36:12.845Z,964.62
2017-11-04T06:37:12.840Z,964.6
2017-11-04T06:38:12.828Z,964.56
2017-11-04T06:39:12.820Z,964.58
2017-11-04T06:40:12.812Z,964.64
2017-11-04T06:41:12.805Z,964.63
2017-11-04T06:42:12.795Z,964.62
2017-11-04T06:43:12.824Z,964.63
2017-11-04T06:44:12.778Z,964.63
2017-11-04T06:45:12.771Z,964.65
2017-11-04T06:46:12.763Z,964.62
2017-11-04T06:47:12.754Z,964.67
2017-11-04T06:48:12.745Z,964.69
2017-11-04T06:49:12.737Z,964.72
2017-11-04T06:50:12.727Z,964.7
2017-11-04T06:51:12.720Z,964.67
2017-11-04T06:52:12.712Z,964.68
2017-11-04T06:53:12.702Z,964.7
2017-11-04T06:54:12.696Z,964.66
2017-11-04T06:55:12.686Z,964.69
2017-11-04T06:56:12.678Z,964.72
2017-11-04T06:57:12.670Z,964.74
2017-11-04T06:58:12.662Z,964.72
2017-11-04T06:59:12.652Z,964.71
2017-11-04T07:00:12.643Z,964.72
2017-11-04T07:01:12.635Z,964.73
2017-11-04T07:02:12.628Z,964.71
2017-11-04T07:03:12.620Z,964.72
2017-11-04T07:04:12.618Z,964.72
2017-11-04T07:05:12.602Z,964.71
2017-11-04T07:06:12.595Z,964.71
2017-11-04T07:07:12.587Z,964.78
2017-11-04T07:08:12.578Z,964.76
2017-11-04T07:09:12.567Z,964.74
2017-11-04T07:10:12.561Z,964.77
2017-11-04T07:11:12.558Z,964.76
2017-11-04T07:12:12.544Z,964.78
2017-11-04T07:13:12.536Z,964.79
2017-11-04T07:14:12.527Z,964.77
2017-11-04T07:15:12.518Z,964.77
2017-11-04T07:16:12.510Z,964.75
2017-11-04T07:17:12.501Z,964.77
2017-11-04T07:18:12.494Z,964.82
2017-11-04T07:19:12.485Z,964.81
2017-11-04T07:20:12.476Z,964.84
2017-11-04T07:21:12.468Z,964.85
2017-11-04T07:22:12.460Z,964.85
2017-11-04T07:23:12.453Z,964.83
2017-11-04T07:24:12.443Z,964.79
2017-11-04T07:25:12.436Z,964.81
2017-11-04T07:26:12.428Z,964.88
2017-11-04T07:27:12.417Z,964.9
2017-11-04T07:28:12.412Z,964.89
2017-11-04T07:29:12.402Z,964.88
2017-11-04T07:30:12.393Z,964.91
2017-11-04T07:31:12.386Z,964.88
2017-11-04T07:32:12.378Z,964.86
2017-11-04T07:33:12.368Z,964.85
2017-11-04T07:34:12.361Z,964.86
2017-11-04T07:35:12.353Z,964.89
2017-11-04T07:36:12.343Z,964.86
2017-11-04T07:37:12.336Z,964.88
2017-11-04T07:38:12.327Z,964.91
2017-11-04T07:39:12.326Z,964.93
2017-11-04T07:40:12.309Z,964.93
2017-11-04T07:41:12.302Z,964.9
2017-11-04T07:42:12.294Z,964.89
2017-11-04T07:43:12.285Z,964.91
2017-11-04T07:44:12.277Z,964.91
2017-11-04T07:45:12.270Z,964.91
2017-11-04T07:46:12.260Z,964.93
2017-11-04T07:47:12.255Z,964.91
2017-11-04T07:48:12.245Z,964.91
2017-11-04T07:49:12.241Z,964.9
2017-11-04T07:50:12.228Z,964.86
2017-11-04T07:51:12.221Z,964.87
2017-11-04T07:52:12.212Z,964.82
2017-11-04T07:53:12.202Z,964.84
2017-11-04T07:54:12.195Z,964.88
2017-11-04T07:55:12.187Z,964.89
2017-11-04T07:56:12.194Z,964.85
2017-11-04T07:57:12.171Z,964.89
2017-11-04T07:58:12.161Z,964.86
2017-11-04T07:59:12.153Z,964.87
2017-11-04T08:00:12.150Z,964.8
2017-11-04T08:01:12.137Z,964.82
2017-11-04T08:02:12.128Z,964.79
2017-11-04T08:03:12.119Z,964.79
2017-11-04T08:04:12.113Z,964.82
2017-11-04T08:05:12.104Z,964.84
2017-11-04T08:06:12.095Z,964.79
2017-11-04T08:07:12.088Z,964.85
2017-11-04T08:08:12.178Z,964.85
2017-11-04T08:09:12.072Z,964.88
2017-11-04T08:10:12.062Z,964.77
2017-11-04T08:11:12.054Z,964.77
2017-11-04T08:12:12.048Z,964.71
2017-11-04T08:13:12.037Z,964.7
2017-11-04T08:14:12.030Z,964.7
2017-11-04T08:15:12.021Z,964.75
2017-11-04T08:16:12.013Z,964.71
2017-11-04T08:17:12.004Z,964.74
2017-11-04T08:18:11.997Z,964.72
2017-11-04T08:19:11.989Z,964.73
2017-11-04T08:20:11.980Z,964.7
2017-11-04T08:21:11.971Z,964.71
2017-11-04T08:22:11.964Z,964.74
2017-11-04T08:23:11.955Z,964.74
2017-11-04T08:24:11.945Z,964.7
2017-11-04T08:25:11.938Z,964.64
2017-11-04T08:26:11.929Z,964.64
2017-11-04T08:27:11.922Z,964.62
2017-11-04T08:28:11.914Z,964.62
2017-11-04T08:29:11.905Z,964.58
2017-11-04T08:30:11.898Z,964.59
2017-11-04T08:31:11.890Z,964.65
2017-11-04T08:32:11.881Z,964.66
2017-11-04T08:33:11.874Z,964.65
2017-11-04T08:34:11.865Z,964.68
2017-11-04T08:35:11.857Z,964.63
2017-11-04T08:36:11.848Z,964.65
2017-11-04T08:37:11.840Z,964.62
2017-11-04T08:38:11.832Z,964.64
2017-11-04T08:39:11.825Z,964.67
2017-11-04T08:40:11.816Z,964.63
2017-11-04T08:41:11.807Z,964.64
2017-11-04T08:42:11.801Z,964.68
2017-11-04T08:43:11.790Z,964.65
2017-11-04T08:44:11.784Z,964.65
2017-11-04T08:45:11.775Z,964.65
2017-11-04T08:46:11.767Z,964.67
2017-11-04T08:47:11.758Z,964.66
2017-11-04T08:48:11.751Z,964.68
2017-11-04T08:49:11.745Z,964.67
2017-11-04T08:50:11.734Z,964.7
2017-11-04T08:51:11.727Z,964.7
2017-11-04T08:52:11.719Z,964.71
2017-11-04T08:53:11.712Z,964.73
2017-11-04T08:54:11.702Z,964.71
2017-11-04T08:55:11.694Z,964.71
2017-11-04T08:56:11.687Z,964.7
2017-11-04T08:57:11.678Z,964.7
2017-11-04T08:58:11.670Z,964.75
2017-11-04T08:59:11.663Z,964.7
2017-11-04T09:00:11.654Z,964.68
2017-11-04T09:01:11.645Z,964.69
2017-11-04T09:02:11.638Z,964.71
2017-11-04T09:03:11.630Z,964.71
2017-11-04T09:04:11.621Z,964.71
2017-11-04T09:05:11.613Z,964.71
2017-11-04T09:06:11.605Z,964.71
2017-11-04T09:07:11.597Z,964.73
2017-11-04T09:08:11.588Z,964.71
2017-11-04T09:09:11.580Z,964.75
2017-11-04T09:10:11.574Z,964.74
2017-11-04T09:11:11.566Z,964.67
2017-11-04T09:12:11.557Z,964.67
2017-11-04T09:13:11.548Z,964.66
2017-11-04T09:14:11.540Z,964.64
2017-11-04T09:15:11.532Z,964.61
2017-11-04T09:16:11.524Z,964.63
2017-11-04T09:17:11.517Z,964.62
2017-11-04T09:18:11.509Z,964.6
2017-11-04T09:19:11.502Z,964.6
2017-11-04T09:20:11.492Z,964.63
2017-11-04T09:21:11.484Z,964.62
2017-11-04T09:22:11.478Z,964.62
2017-11-04T09:23:11.572Z,964.62
2017-11-04T09:24:11.460Z,964.63
2017-11-04T09:25:11.452Z,964.66
2017-11-04T09:26:11.444Z,964.62
2017-11-04T09:27:11.437Z,964.66
2017-11-04T09:28:11.428Z,964.7
2017-11-04T09:29:11.422Z,964.7
2017-11-04T09:30:11.412Z,964.7
2017-11-04T09:31:11.404Z,964.71
2017-11-04T09:32:11.396Z,964.68
2017-11-04T09:33:11.389Z,964.71
2017-11-04T09:34:11.381Z,964.7
2017-11-04T09:35:11.372Z,964.71
2017-11-04T09:36:11.364Z,964.72
2017-11-04T09:37:11.355Z,964.71
2017-11-04T09:38:11.349Z,964.72
2017-11-04T09:39:11.340Z,964.73
2017-11-04T09:40:11.333Z,964.78
2017-11-04T09:41:11.335Z,964.75
2017-11-04T09:42:11.318Z,964.74
2017-11-04T09:43:11.309Z,964.71
2017-11-04T09:44:11.300Z,964.72
2017-11-04T09:45:11.292Z,964.71
2017-11-04T09:46:11.291Z,964.73
2017-11-04T09:47:11.284Z,964.74
2017-11-04T09:48:11.269Z,964.7
2017-11-04T09:49:11.260Z,964.69
2017-11-04T09:50:11.253Z,964.72
2017-11-04T09:51:11.245Z,964.7
2017-11-04T09:52:11.238Z,964.66
2017-11-04T09:53:11.234Z,964.64
2017-11-04T09:54:11.223Z,964.63
2017-11-04T09:55:11.214Z,964.62
2017-11-04T09:56:11.205Z,964.63
2017-11-04T09:57:11.197Z,964.57
2017-11-04T09:58:11.190Z,964.61
2017-11-04T09:59:11.181Z,964.6
2017-11-04T10:00:11.173Z,964.61
2017-11-04T10:01:11.164Z,964.61
2017-11-04T10:02:11.160Z,964.58
2017-11-04T10:03:11.149Z,964.57
2017-11-04T10:04:11.140Z,964.56
2017-11-04T10:05:11.133Z,964.55
2017-11-04T10:06:11.226Z,964.55
2017-11-04T10:07:11.130Z,964.55
2017-11-04T10:08:11.109Z,964.57
2017-11-04T10:09:11.103Z,964.57
2017-11-04T10:10:11.092Z,964.62
2017-11-04T10:11:11.084Z,964.61
2017-11-04T10:12:11.177Z,964.61
2017-11-04T10:13:11.070Z,964.63
2017-11-04T10:14:11.061Z,964.62
2017-11-04T10:15:11.053Z,964.61
2017-11-04T10:16:11.047Z,964.57
2017-11-04T10:17:11.040Z,964.6
2017-11-04T10:18:11.029Z,964.61
2017-11-04T10:19:11.022Z,964.64
2017-11-04T10:20:11.014Z,964.65
2017-11-04T10:21:11.005Z,964.66
2017-11-04T10:22:10.998Z,964.67
2017-11-04T10:23:10.989Z,964.68
2017-11-04T10:24:10.990Z,964.65
2017-11-04T10:25:10.975Z,964.7
2017-11-04T10:26:10.968Z,964.62
2017-11-04T10:27:10.959Z,964.63
2017-11-04T10:28:11.050Z,964.63
2017-11-04T10:29:10.944Z,964.62
2017-11-04T10:30:10.936Z,964.6
2017-11-04T10:31:10.928Z,964.59
2017-11-04T10:32:10.919Z,964.55
2017-11-04T10:33:10.911Z,964.53
2017-11-04T10:34:10.904Z,964.55
2017-11-04T10:35:10.897Z,964.57
2017-11-04T10:36:10.888Z,964.55
2017-11-04T10:37:10.879Z,964.51
2017-11-04T10:38:10.872Z,964.53
2017-11-04T10:39:10.863Z,964.52
2017-11-04T10:40:10.856Z,964.5
2017-11-04T10:41:10.848Z,964.47
2017-11-04T10:42:10.841Z,964.48
2017-11-04T10:43:10.833Z,964.46
2017-11-04T10:44:10.924Z,964.39
2017-11-04T10:45:10.818Z,964.39
2017-11-04T10:46:10.808Z,964.4
2017-11-04T10:47:10.800Z,964.4
2017-11-04T10:48:10.793Z,964.34
2017-11-04T10:49:10.784Z,964.35
2017-11-04T10:50:10.777Z,964.31
2017-11-04T10:51:10.769Z,964.3
2017-11-04T10:52:10.760Z,964.28
2017-11-04T10:53:10.753Z,964.27
2017-11-04T10:54:10.747Z,964.27
2017-11-04T10:55:10.745Z,964.27
2017-11-04T10:56:10.730Z,964.25
2017-11-04T10:57:10.722Z,964.23
2017-11-04T10:58:10.714Z,964.19
2017-11-04T10:59:10.706Z,964.16
2017-11-04T11:00:10.698Z,964.2
2017-11-04T11:01:10.696Z,964.22
2017-11-04T11:02:10.681Z,964.17
2017-11-04T11:03:10.692Z,964.16
2017-11-04T11:04:10.668Z,964.13
2017-11-04T11:05:10.658Z,964.12
2017-11-04T11:06:10.651Z,964.06
2017-11-04T11:07:10.643Z,964.08
2017-11-04T11:08:10.653Z,964.09
2017-11-04T11:09:10.625Z,964.12
2017-11-04T11:10:10.619Z,964.08
2017-11-04T11:11:10.612Z,964.07
2017-11-04T11:12:10.603Z,964.11
2017-11-04T11:13:10.613Z,964.08
2017-11-04T11:14:10.588Z,964.06
2017-11-04T11:15:10.582Z,964.09
2017-11-04T11:16:10.572Z,964.07
2017-11-04T11:17:10.665Z,964.07
2017-11-04T11:18:10.558Z,964.08
2017-11-04T11:19:10.549Z,964.06
2017-11-04T11:20:10.541Z,964.03
2017-11-04T11:21:10.533Z,964.02
2017-11-04T11:22:10.544Z,964.04
2017-11-04T11:23:10.516Z,964.04
2017-11-04T11:24:10.509Z,964.02
2017-11-04T11:25:10.503Z,964.02
2017-11-04T11:26:10.492Z,963.94
2017-11-04T11:27:10.486Z,963.93
2017-11-04T11:28:10.477Z,963.93
2017-11-04T11:29:10.471Z,963.97
2017-11-04T11:30:10.569Z,963.94
2017-11-04T11:31:10.455Z,963.91
2017-11-04T11:32:10.447Z,963.91
2017-11-04T11:33:10.439Z,963.94
2017-11-04T11:34:10.431Z,963.87
2017-11-04T11:35:10.426Z,963.89
2017-11-04T11:36:10.415Z,963.87
2017-11-04T11:37:10.409Z,963.87
2017-11-04T11:38:10.402Z,963.83
2017-11-04T11:39:10.393Z,963.84
2017-11-04T11:40:10.385Z,963.78
2017-11-04T11:41:10.378Z,963.79
2017-11-04T11:42:10.370Z,963.79
2017-11-04T11:43:10.363Z,963.77
2017-11-04T11:44:10.355Z,963.76
2017-11-04T11:45:10.345Z,963.69
2017-11-04T11:46:10.339Z,963.69
2017-11-04T11:47:10.331Z,963.73
2017-11-04T11:48:10.324Z,963.7
2017-11-04T11:49:10.314Z,963.71
2017-11-04T11:50:10.307Z,963.72
2017-11-04T11:51:10.301Z,963.72
2017-11-04T11:52:10.294Z,963.7
2017-11-04T11:53:10.284Z,963.69
2017-11-04T11:54:10.281Z,963.69
2017-11-04T11:55:10.270Z,963.67
2017-11-04T11:56:10.278Z,963.71
2017-11-04T11:57:10.253Z,963.66
2017-11-04T11:58:10.249Z,963.69
2017-11-04T11:59:10.238Z,963.64
2017-11-04T12:00:10.231Z,963.66
2017-11-04T12:01:10.224Z,963.64
2017-11-04T12:02:10.219Z,963.65
2017-11-04T12:03:10.309Z,963.66
2017-11-04T12:04:10.202Z,963.65
2017-11-04T12:05:10.195Z,963.65
2017-11-04T12:06:10.187Z,963.65
2017-11-04T12:07:10.178Z,963.66
2017-11-04T12:08:10.176Z,963.62
2017-11-04T12:09:10.164Z,963.61
2017-11-04T12:10:10.156Z,963.61
2017-11-04T12:11:10.153Z,963.59
2017-11-04T12:12:10.141Z,963.58
2017-11-04T12:13:10.134Z,963.57
2017-11-04T12:14:10.124Z,963.55
2017-11-04T12:15:10.121Z,963.57
2017-11-04T12:16:10.110Z,963.55
2017-11-04T12:17:10.103Z,963.54
2017-11-04T12:18:10.095Z,963.54
2017-11-04T12:19:10.086Z,963.53
2017-11-04T12:20:10.081Z,963.53
2017-11-04T12:21:10.072Z,963.52
2017-11-04T12:22:10.065Z,963.48
2017-11-04T12:23:10.057Z,963.5
2017-11-04T12:24:10.049Z,963.52
2017-11-04T12:25:10.042Z,963.46
2017-11-04T12:26:10.033Z,963.46
2017-11-04T12:27:10.027Z,963.42
2017-11-04T12:28:10.019Z,963.42
2017-11-04T12:29:10.011Z,963.44
2017-11-04T12:30:10.004Z,963.43